• Join FlightAware (Why Join?)
  • Login
  • US Flag 
01:06AM EDT


 

Airport Tracker/Info


-or-


 

Live Flight TrackerFlight Track Log ✈ N550VW ✈ 03-May-2013 ✈ KDVT - KSLC

Flight Track Log - Related Links

Times and Time Zones

All times are in EDT time to prevent confusion due to time zone crossing. See the N550VW flight status page for this flight to view local times or setup timezone preferences in your user account.

Time Position Orientation Groundspeed Altitude Reporting Facility
EDT Latitude Longitude Course Direction KTS MPH feet Rate Location/Type
11:29PM 33.6833 -112.0500 40° Northeast 168 193 2,300  Level Phoenix TRACON
11:30PM 33.7167 -112.0167 40° Northeast 215 247 4,300 1,800 Climbing Phoenix TRACON
11:31PM 33.7722 -112.0219 355° North 235 270 5,900 1,920 Climbing Albuquerque Center
11:32PM 33.8064 -111.9611 56° Northeast 229 264 8,200 1,860 Climbing Albuquerque Center
11:33PM 33.8525 -111.9089 43° Northeast 230 265 9,800 840 Climbing Albuquerque Center
11:34PM 33.9297 -111.8564 29° Northeast 289 333 10,000 480 Climbing Albuquerque Center
11:35PM 33.9875 -111.7989 40° Northeast 276 318 10,900 840 Climbing Albuquerque Center
11:36PM 34.0425 -111.7539 34° Northeast 269 310 11,800 780 Climbing Albuquerque Center
11:37PM 34.1081 -111.7106 29° Northeast 268 308 12,500 1,140 Climbing Albuquerque Center
11:38PM 34.1950 -111.6881 12° North 267 307 14,200 1,920 Climbing Albuquerque Center
11:39PM 34.2550 -111.6508 27° Northeast 249 287 16,500 1,980 Climbing Albuquerque Center
11:40PM 34.3161 -111.6417 North 238 274 18,300 1,200 Climbing Albuquerque Center
11:41PM 34.3847 -111.6444 358° North 244 281 19,000 300 Climbing Albuquerque Center
11:42PM 34.4650 -111.6478 358° North 280 322 19,000 240 Level Albuquerque Center
11:43PM 34.5511 -111.6519 358° North 304 350 19,600 1,440 Climbing Albuquerque Center
11:44PM 34.6292 -111.6556 358° North 292 336 22,000 1,620 Climbing Albuquerque Center
11:45PM 34.6983 -111.6600 357° North 253 291 23,000 540 Climbing Albuquerque Center
11:46PM 34.7714 -111.6922 340° North 278 320 23,200 900 Climbing Albuquerque Center
11:47PM 34.8597 -111.7256 343° North 285 328 24,900 1,380 Climbing Albuquerque Center
11:48PM 34.9272 -111.7519 342° North 267 307 26,100 1,080 Climbing Albuquerque Center
11:49PM 34.9953 -111.7781 343° North 260 299 27,200 1,020 Climbing Albuquerque Center
11:50PM 35.0647 -111.8050 342° North 262 302 28,200 900 Climbing Albuquerque Center
11:51PM 35.1353 -111.8311 343° North 265 305 29,100 900 Climbing Albuquerque Center
11:52PM 35.2064 -111.8583 343° North 268 308 30,100 780 Climbing Albuquerque Center
11:53PM 35.2783 -111.8853 343° North 271 312 30,800 780 Climbing Albuquerque Center
11:54PM 35.3664 -111.9181 343° North 276 318 31,800 840 Climbing Albuquerque Center
11:55PM 35.4411 -111.9464 343° North 280 322 32,600 840 Climbing Albuquerque Center
11:56PM 35.5142 -111.9753 342° North 280 322 33,600 780 Climbing Albuquerque Center
11:57PM 35.5842 -112.0022 343° North 271 312 34,300 540 Climbing Albuquerque Center
11:58PM 35.6572 -112.0297 343° North 273 314 34,700 360 Climbing Albuquerque Center
11:59PM 35.6878 -112.0403 344° North 277 319 34,900 180 Climbing Los Angeles Center
12:00AM 35.7639 -112.0703 342° North 286 329 35,000  Climbing Los Angeles Center
12:01AM 35.8442 -112.1014 343° North 300 345 35,000  Level Los Angeles Center
12:02AM 35.9433 -112.1392 343° North 312 359 35,000  Level Los Angeles Center
12:03AM 36.0339 -112.1542 352° North 333 383 35,000  Level Los Angeles Center
12:04AM 36.1258 -112.1603 357° North 334 384 35,000  Level Los Angeles Center
12:05AM 36.2294 -112.1706 355° North 342 394 35,000  Level Los Angeles Center
12:06AM 36.3244 -112.1781 356° North 342 394 35,000  Level Los Angeles Center
12:07AM 36.4194 -112.1878 355° North 344 396 35,000  Level Los Angeles Center
12:08AM 36.5161 -112.1944 357° North 346 398 35,000 -180 Level Los Angeles Center
12:09AM 36.6117 -112.2039 355° North 346 398 34,700 -420 Descending Los Angeles Center
12:10AM 36.7297 -112.2147 356° North 354 407 34,200 -360 Descending Los Angeles Center
12:11AM 36.8289 -112.2233 356° North 358 412 34,000 -120 Descending Los Angeles Center
12:12AM 36.9275 -112.2328 356° North 356 410 34,000  Level Los Angeles Center
12:13AM 37.0242 -112.2417 356° North 351 404 34,100  Climbing Los Angeles Center
12:14AM 37.1022 -112.2481 356° North 351 404 34,100  Level Los Angeles Center
12:15AM 37.2189 -112.2586 356° North 353 406 34,100  Level Los Angeles Center
12:16AM 37.3339 -112.2706 355° North 349 402 34,100  Level Los Angeles Center
12:17AM 37.4292 -112.2792 356° North 346 398 34,100  Level Los Angeles Center
12:18AM 37.5444 -112.2897 356° North 347 399 34,100 -60 Level Los Angeles Center
12:19AM 37.6406 -112.2994 355° North 349 402 34,000  Descending Salt Lake Center
12:20AM 37.7586 -112.2956 North 356 410 34,100  Climbing Salt Lake Center
12:21AM 37.8578 -112.2808 North 361 415 34,000  Descending Salt Lake Center
12:22AM 37.9564 -112.2681 North 359 413 34,100  Climbing Salt Lake Center
12:23AM 38.0536 -112.2553 North 353 406 34,000 -60 Descending Salt Lake Center
12:24AM 38.1503 -112.2419 North 351 404 34,000  Level Salt Lake Center
12:25AM 38.2472 -112.2283 North 351 404 34,000  Level Salt Lake Center
12:26AM 38.3450 -112.2139 North 354 407 34,000  Level Salt Lake Center
12:28AM 38.4433 -112.2003 North 355 409 34,100  Climbing Salt Lake Center
12:29AM 38.5428 -112.1853 North 357 411 34,000 -60 Descending Salt Lake Center
12:30AM 38.6422 -112.1728 North 359 413 34,000  Level Salt Lake Center
12:31AM 38.7628 -112.1547 North 362 417 34,100  Climbing Salt Lake Center
12:32AM 38.8622 -112.1411 North 361 415 34,000 -660 Descending Salt Lake Center
12:33AM 38.9658 -112.1272 North 370 426 32,800 -960 Descending Salt Lake Center
12:34AM 39.0731 -112.1108 North 386 444 32,100 -1,260 Descending Salt Lake Center
12:35AM 39.1767 -112.0972 North 376 433 30,300 -2,520 Descending Salt Lake Center
12:36AM 39.2822 -112.0819 North 368 423 27,000 -2,940 Descending Salt Lake Center
12:37AM 39.3822 -112.0686 North 362 417 24,400 -2,460 Descending Salt Lake Center
12:38AM 39.4778 -112.0556 North 352 405 22,000 -2,400 Descending Salt Lake Center
12:39AM 39.5708 -112.0411 North 342 394 19,600 -2,220 Descending Salt Lake Center
12:40AM 39.6636 -112.0311 North 338 389 17,500 -1,860 Descending Salt Lake Center
12:41AM 39.7522 -112.0183 North 331 381 15,900 -1,200 Descending Salt Lake Center
12:42AM 39.8294 -112.0050 North 293 337 15,100 -420 Descending Salt Lake Center
12:43AM 39.9111 -112.0031 North 282 325 15,100 -120 Level Salt Lake Center
12:43AM 39.9572 -111.9961 North 284 327 15,000 -600 Descending Salt Lake Center
12:44AM 40.0003 -111.9803 16° North 283 326 14,500 -1,440 Descending Salt Lake Center
12:44AM 40.0344 -111.9842 355° North 279 321 13,600 -2,220 Descending Salt Lake Center
12:45AM 40.0761 -111.9700 15° North 275 316 12,300 -2,400 Descending Salt Lake Center
12:45AM 40.1036 -111.9747 353° North 273 314 11,400 -2,100 Descending Salt Lake Center
12:46AM 40.1497 -111.9597 14° North 269 310 10,200 -1,920 Descending Salt Lake Center
12:46AM 40.1794 -111.9661 351° North 263 303 9,500 -1,140 Descending Salt Lake Center
12:47AM 40.2222 -111.9586 North 263 303 9,100 -540 Descending Salt Lake Center
12:47AM 40.2528 -111.9667 349° North 261 300 9,000  Descending Salt Lake Center
12:48AM 40.2939 -111.9589 North 259 298 9,100 60 Climbing Salt Lake Center
12:48AM 40.3125 -111.9633 350° North 249 287 9,100  Level Salt Lake Center
12:49AM 40.3547 -111.9603 North 218 251 9,100  Level Salt Lake Center
12:49AM 40.3797 -111.9658 350° North 216 249 9,100  Level Salt Lake Center
12:50AM 40.4156 -111.9600 North 220 253 9,100  Level Salt Lake Center
12:50AM 40.4358 -111.9667 346° North 225 259 9,100  Level Salt Lake Center
12:51AM 40.4789 -111.9606 North 227 261 9,100  Level Salt Lake Center
12:51AM 40.5000 -111.9647 351° North 220 253 9,100 -240 Level Salt Lake Center
12:52AM 40.5328 -111.9611 North 194 223 8,900 -540 Descending Salt Lake Center
12:52AM 40.5475 -111.9656 347° North 172 198 8,600 -900 Descending Salt Lake Center
12:53AM 40.5778 -111.9611 North 166 191 8,000 -840 Descending Salt Lake Center
12:54AM 40.6222 -111.9611 360° North 160 184 7,200 -840 Descending Salt Lake Center
12:55AM 40.6619 -111.9622 359° North 146 168 6,400 -780 Descending Salt Lake Center
12:56AM 40.6997 -111.9619 360° North 117 135 5,700 -660 Descending Salt Lake Center
12:57AM 40.7347 -111.9642 357° North 119 137 5,000 -660 Descending Salt Lake Center
12:58AM 40.7650 -111.9622 North 115 132 4,400 -720 Descending Salt Lake Center
01:00AM 40.7833 -111.9667 North  Level FlightAware Approximate
01:07AM 40.7884 -111.9778 North  Level Estimated